Gansville, Louisiana
Current Conditions -  °F | °C
As of 12:15 PM on Friday 31 Oct 2014 (Local Time) from KRSN Reporting Station
Clear Clear  
Wind Chill: 67°   Ceiling: Unl
Heat Index: 67°   Visibility: 10mi
Dew Point: 47°   Wind: 15mph
Humidity: 49%   Direction: 10°N
Pressure: 30.2"   Gusts: 21mph
Location:  32.0727°N, 92.6697°W
Report Text: KRSN 311715Z AUTO 01013G18KT 10SM CLR 19/08 A3020 RMK AO2 T01920082
Loading
Personal Weather Stations






























Interactive Weather Map
Tropical Storm Tracking
New forecast layout! Learn more

10-Day Weather Forecast

Advertisements
Track Severe Weather on mobile